Polar Ranger — WDC8652 — position and weather

sailwx.info

Track history (hours):
 
Tides and Currents Weather Stations Pressure Air Temp Water Temp Dewpoint Dewpoint Depression Visibility Wind Speed Wind Dir Waves Ship Positions

Polar Ranger

Owner: Dunlap Towing Co., LaConner, WA. More information available from US FCC via Universal Licensing System and Coast Guard Vessel Documentation Center.

Last reported at 2015-Jan-20 19:20 UTC. Time now 2015-Jan-25 12:20 UTC.
Position N 47°39' W 122°22'.

Type: Tow > 200 m length. MMSI: 367090860.

Date/timePositionNaut miles runAvg speedWind from/ knotsBaromVisibWave heightAir tempDewpointWater temp
2015-Jan-20 19:20N 47°39' W 122°22'0 0.7
2015-Jan-20 19:16N 47°39' W 122°22'1 1.8
2015-Jan-20 18:32N 47°40' W 122°24'0 0.0
2015-Jan-20 18:31N 47°40' W 122°24'2 2.3
2015-Jan-20 17:33N 47°42' W 122°25'0 9.1
2015-Jan-20 17:31N 47°42' W 122°25'1111.3
2015-Jan-20 16:33N 47°53' W 122°22'112.2
2015-Jan-20 16:31N 47°53' W 122°22'8 8.3
2015-Jan-20 15:33N 47°59' W 122°13'  
Track history (hours):
 
Tides and Currents Weather Stations Pressure Air Temp Water Temp Dewpoint Dewpoint Depression Visibility Wind Speed Wind Dir Waves Ship Positions

Polar Ranger

Owner: Dunlap Towing Co., LaConner, WA. More information available from US FCC via Universal Licensing System and Coast Guard Vessel Documentation Center.

Last reported at 2015-Jan-20 19:20 UTC. Time now 2015-Jan-25 12:20 UTC.
Position N 47°39' W 122°22'.

Type: Tow > 200 m length. MMSI: 367090860.

Date/timePositionNaut miles runAvg speedWind from/ knotsBaromVisibWave heightAir tempDewpointWater temp
2015-Jan-20 19:20N 47°39' W 122°22'0 0.7
2015-Jan-20 19:16N 47°39' W 122°22'1 1.8
2015-Jan-20 18:32N 47°40' W 122°24'0 0.0
2015-Jan-20 18:31N 47°40' W 122°24'2 2.3
2015-Jan-20 17:33N 47°42' W 122°25'0 9.1
2015-Jan-20 17:31N 47°42' W 122°25'1111.3
2015-Jan-20 16:33N 47°53' W 122°22'112.2
2015-Jan-20 16:31N 47°53' W 122°22'8 8.3
2015-Jan-20 15:33N 47°59' W 122°13'  

Dump ship's entire track history